Time;durP1;ratioP1;P1;durP2;ratioP2;P2;SDS_P1;SDS_P2;PMS_P1;PMS_P2;Temp;Humidity;BMP_temperature;BMP_pressure;BME280_temperature;BME280_humidity;BME280_pressure;Samples;Min_cycle;Max_cycle;Signal;HPM_P1;HPM_P2
2022/04/24 00:01:07;;;;;;;;;;;11.00;99.90;;;;;;5075800;28;19920;-75
2022/04/24 00:03:33;;;;;;;;;;;11.00;99.90;;;;;;5073741;28;19962;-74
2022/04/24 00:05:58;;;;;;;;;;;11.00;99.90;;;;;;5077233;28;19946;-74
2022/04/24 00:08:24;;;;;;;;;;;11.00;99.90;;;;;;5064603;28;19909;-74
2022/04/24 00:10:50;;;;;;;;;;;10.90;99.90;;;;;;5067556;28;19967;-74
2022/04/24 00:13:16;;;;;;;;;;;10.90;99.90;;;;;;5073111;28;20012;-73
2022/04/24 00:15:41;;;;;;;;;;;10.90;99.90;;;;;;5039039;28;20282;-74
2022/04/24 00:18:07;;;;;;;;;;;10.90;99.90;;;;;;5070779;28;19923;-73
2022/04/24 00:20:32;;;;;;;;;;;10.90;99.90;;;;;;5077812;28;19916;-74
2022/04/24 00:22:58;;;;;;;;;;;10.90;99.90;;;;;;5096693;28;19912;-74
2022/04/24 00:25:23;;;;;;;;;;;10.90;99.90;;;;;;5076846;28;19912;-74
2022/04/24 00:27:49;;;;;;;;;;;10.90;99.90;;;;;;5071980;28;20310;-73
2022/04/24 00:30:15;;;;;;;;;;;10.80;99.90;;;;;;5074923;28;20006;-74
2022/04/24 00:32:40;;;;;;;;;;;10.80;99.90;;;;;;5060493;28;19917;-75
2022/04/24 00:35:06;;;;;;;;;;;10.80;99.90;;;;;;5068102;28;19916;-74
2022/04/24 00:37:31;;;;;;;;;;;10.80;99.90;;;;;;5061448;28;20223;-75
2022/04/24 00:39:57;;;;;;;;;;;10.70;99.90;;;;;;5075553;28;20230;-73
2022/04/24 00:42:22;;;;;;;;;;;10.70;99.90;;;;;;5074419;28;20295;-74
2022/04/24 00:44:48;;;;;;;;;;;10.70;99.90;;;;;;5073930;28;20005;-75
2022/04/24 00:47:15;;;;;;;;;;;10.70;99.90;;;;;;5074888;28;19916;-75
2022/04/24 00:49:41;;;;;;;;;;;10.70;99.90;;;;;;5074339;28;19920;-75
2022/04/24 00:52:07;;;;;;;;;;;10.70;99.90;;;;;;5074133;28;19936;-75
2022/04/24 00:54:33;;;;;;;;;;;10.60;99.90;;;;;;5074081;28;19912;-75
2022/04/24 00:56:58;;;;;;;;;;;10.60;99.90;;;;;;5073289;28;19999;-74
2022/04/24 00:59:24;;;;;;;;;;;10.50;99.90;;;;;;5061000;28;20003;-74
2022/04/24 01:01:49;;;;;;;;;;;10.40;99.90;;;;;;5055834;28;19913;-75
2022/04/24 01:04:16;;;;;;;;;;;10.40;99.90;;;;;;5073961;28;19912;-75
2022/04/24 01:06:43;;;;;;;;;;;10.40;99.90;;;;;;5075054;28;19916;-75
2022/04/24 01:09:08;;;;;;;;;;;10.40;99.90;;;;;;5064983;28;20314;-74
2022/04/24 01:11:34;;;;;;;;;;;10.40;99.90;;;;;;5071811;28;20019;-74
2022/04/24 01:13:59;;;;;;;;;;;10.30;99.90;;;;;;5069775;28;19920;-74
2022/04/24 01:16:25;;;;;;;;;;;10.30;99.90;;;;;;5069244;28;19923;-75
2022/04/24 01:18:50;;;;;;;;;;;10.30;99.90;;;;;;5059543;28;19920;-74
2022/04/24 01:21:16;;;;;;;;;;;10.20;99.90;;;;;;5074326;28;19916;-75
2022/04/24 01:23:43;;;;;;;;;;;10.20;99.90;;;;;;5075672;28;19916;-75
2022/04/24 01:26:08;;;;;;;;;;;10.20;99.90;;;;;;5075996;28;19913;-75
2022/04/24 01:28:34;;;;;;;;;;;10.10;99.90;;;;;;5071432;28;19995;-75
2022/04/24 01:31:00;;;;;;;;;;;10.10;99.90;;;;;;5072506;28;19916;-74
2022/04/24 01:33:26;;;;;;;;;;;10.10;99.90;;;;;;5067183;28;19924;-75
2022/04/24 01:35:52;;;;;;;;;;;10.10;99.90;;;;;;5059563;28;19923;-74
2022/04/24 01:38:17;;;;;;;;;;;10.10;99.90;;;;;;5067679;28;19920;-75
2022/04/24 01:40:43;;;;;;;;;;;10.00;99.90;;;;;;5068401;28;20002;-74
2022/04/24 01:43:08;;;;;;;;;;;9.90;99.90;;;;;;5074122;28;19934;-75
2022/04/24 01:45:34;;;;;;;;;;;9.80;99.90;;;;;;5069390;28;19913;-74
2022/04/24 01:47:59;;;;;;;;;;;9.80;99.90;;;;;;5075335;28;19908;-74
2022/04/24 01:50:25;;;;;;;;;;;9.70;99.90;;;;;;5073593;28;20049;-74
2022/04/24 01:52:51;;;;;;;;;;;9.80;99.90;;;;;;5074490;28;19987;-74
2022/04/24 01:55:18;;;;;;;;;;;9.70;99.90;;;;;;5074395;28;19908;-75
2022/04/24 01:57:43;;;;;;;;;;;9.80;99.90;;;;;;5075270;28;19913;-75
2022/04/24 02:00:09;;;;;;;;;;;9.70;99.90;;;;;;5062179;28;19969;-74
2022/04/24 02:02:35;;;;;;;;;;;9.70;99.90;;;;;;5069496;28;19920;-74
2022/04/24 02:05:00;;;;;;;;;;;9.70;99.90;;;;;;5075268;28;20100;-74
2022/04/24 02:07:28;;;;;;;;;;;9.70;99.90;;;;;;5072017;28;19923;-74
2022/04/24 02:09:53;;;;;;;;;;;9.70;99.90;;;;;;5063008;28;19951;-75
2022/04/24 02:12:19;;;;;;;;;;;9.70;99.90;;;;;;5071506;28;20006;-75
2022/04/24 02:14:44;;;;;;;;;;;9.70;99.90;;;;;;5074254;28;19912;-75
2022/04/24 02:17:10;;;;;;;;;;;9.60;99.90;;;;;;5070183;28;20324;-76
2022/04/24 02:19:36;;;;;;;;;;;9.70;99.90;;;;;;5078122;28;20359;-80
2022/04/24 02:22:02;;;;;;;;;;;9.70;99.90;;;;;;5075824;28;19927;-75
2022/04/24 02:24:27;;;;;;;;;;;9.60;99.90;;;;;;5064686;28;19913;-74
2022/04/24 02:26:53;;;;;;;;;;;9.60;99.90;;;;;;5058789;28;20011;-74
2022/04/24 02:29:19;;;;;;;;;;;9.50;99.90;;;;;;5066123;28;20375;-74
2022/04/24 02:31:45;;;;;;;;;;;9.60;99.90;;;;;;5075189;28;19927;-74
2022/04/24 02:34:10;;;;;;;;;;;9.60;99.90;;;;;;5073501;28;19916;-75
2022/04/24 02:36:36;;;;;;;;;;;9.50;99.90;;;;;;5073003;28;19967;-75
2022/04/24 02:39:02;;;;;;;;;;;9.60;99.90;;;;;;5076386;28;19916;-74
2022/04/24 02:41:27;;;;;;;;;;;9.50;99.90;;;;;;5075574;28;20314;-75
2022/04/24 02:43:53;;;;;;;;;;;9.50;99.90;;;;;;5059617;28;19913;-75
2022/04/24 02:46:18;;;;;;;;;;;9.50;99.90;;;;;;5074047;28;20230;-76
2022/04/24 02:48:44;;;;;;;;;;;9.40;99.90;;;;;;5078426;28;19912;-75
2022/04/24 02:51:09;;;;;;;;;;;9.40;99.90;;;;;;5073737;28;20003;-75
2022/04/24 02:53:35;;;;;;;;;;;9.40;99.90;;;;;;5077933;28;19915;-75
2022/04/24 02:56:00;;;;;;;;;;;9.40;99.90;;;;;;5074353;28;19938;-76
2022/04/24 02:58:26;;;;;;;;;;;9.50;99.90;;;;;;5078023;28;20003;-75
2022/04/24 03:00:54;;;;;;;;;;;9.40;99.90;;;;;;5076357;28;20223;-75
2022/04/24 03:03:20;;;;;;;;;;;9.40;99.90;;;;;;5075923;28;19920;-74
2022/04/24 03:05:46;;;;;;;;;;;9.40;99.90;;;;;;5071947;28;20374;-75
2022/04/24 03:08:12;;;;;;;;;;;9.30;99.90;;;;;;5072948;28;19923;-75
2022/04/24 03:10:38;;;;;;;;;;;9.30;99.90;;;;;;5058837;28;19921;-75
2022/04/24 03:13:03;;;;;;;;;;;9.30;99.90;;;;;;5064496;28;19917;-76
2022/04/24 03:15:29;;;;;;;;;;;9.30;99.90;;;;;;5065224;28;19913;-75
2022/04/24 03:17:54;;;;;;;;;;;9.30;99.90;;;;;;5075433;28;19916;-75
2022/04/24 03:20:20;;;;;;;;;;;9.30;99.90;;;;;;5060863;28;19986;-75
2022/04/24 03:22:46;;;;;;;;;;;9.20;99.90;;;;;;5060461;28;20316;-75
2022/04/24 03:25:11;;;;;;;;;;;9.20;99.90;;;;;;5064380;28;19912;-75
2022/04/24 03:27:37;;;;;;;;;;;9.20;99.90;;;;;;5063925;28;19920;-81
2022/04/24 03:30:04;;;;;;;;;;;9.20;99.90;;;;;;5062786;28;20216;-81
2022/04/24 03:32:31;;;;;;;;;;;9.20;99.90;;;;;;5067145;28;19948;-81
2022/04/24 03:34:57;;;;;;;;;;;9.20;99.90;;;;;;5060805;28;19978;-81
2022/04/24 03:37:22;;;;;;;;;;;9.20;99.90;;;;;;5064510;28;20295;-81
2022/04/24 03:39:48;;;;;;;;;;;9.20;99.90;;;;;;5058900;28;20003;-84
2022/04/24 03:42:13;;;;;;;;;;;9.10;99.90;;;;;;5056404;28;19916;-83
2022/04/24 03:44:39;;;;;;;;;;;9.10;99.90;;;;;;5062304;28;19917;-74
2022/04/24 03:47:05;;;;;;;;;;;9.10;99.90;;;;;;5074646;28;19916;-81
2022/04/24 03:49:31;;;;;;;;;;;9.10;99.90;;;;;;5073910;28;19987;-79
2022/04/24 03:51:58;;;;;;;;;;;9.00;99.90;;;;;;5076674;28;19913;-79
2022/04/24 03:54:23;;;;;;;;;;;9.00;99.90;;;;;;5076222;28;19934;-80
2022/04/24 03:56:49;;;;;;;;;;;8.90;99.90;;;;;;5075197;28;19995;-80
2022/04/24 03:59:15;;;;;;;;;;;8.90;99.90;;;;;;5071106;28;19946;-81
2022/04/24 04:01:40;;;;;;;;;;;9.00;99.90;;;;;;5071120;28;19912;-81
2022/04/24 04:04:06;;;;;;;;;;;8.90;99.90;;;;;;5075181;28;19924;-82
2022/04/24 04:06:31;;;;;;;;;;;8.90;99.90;;;;;;5072059;28;19913;-80
2022/04/24 04:08:57;;;;;;;;;;;8.90;99.90;;;;;;5069964;28;20204;-83
2022/04/24 04:11:22;;;;;;;;;;;8.80;99.90;;;;;;5072361;28;19944;-80
2022/04/24 04:13:48;;;;;;;;;;;8.80;99.90;;;;;;5075765;28;19924;-78
2022/04/24 04:16:13;;;;;;;;;;;8.90;99.90;;;;;;5075143;28;19913;-78
2022/04/24 04:18:39;;;;;;;;;;;8.80;99.90;;;;;;5072942;28;19951;-78
2022/04/24 04:21:05;;;;;;;;;;;8.80;99.90;;;;;;5073528;28;19913;-77
2022/04/24 04:23:30;;;;;;;;;;;8.70;99.90;;;;;;5075072;28;19917;-78
2022/04/24 04:25:56;;;;;;;;;;;8.70;99.90;;;;;;5072923;28;19916;-78
2022/04/24 04:28:21;;;;;;;;;;;8.70;99.90;;;;;;5073066;28;20283;-80
2022/04/24 04:30:47;;;;;;;;;;;8.70;99.90;;;;;;5072358;28;19955;-78
2022/04/24 04:33:12;;;;;;;;;;;8.80;99.90;;;;;;5066989;28;19912;-78
2022/04/24 04:35:38;;;;;;;;;;;8.80;99.90;;;;;;5065289;28;19943;-78
2022/04/24 04:38:04;;;;;;;;;;;8.80;99.90;;;;;;5072602;28;19916;-76
2022/04/24 04:40:30;;;;;;;;;;;8.70;99.90;;;;;;5069426;28;20713;-79
2022/04/24 04:42:56;;;;;;;;;;;8.70;99.90;;;;;;5056171;28;19924;-78
2022/04/24 04:45:22;;;;;;;;;;;8.80;99.90;;;;;;5055153;28;19913;-78
2022/04/24 04:47:47;;;;;;;;;;;8.70;99.90;;;;;;5067106;28;19948;-79
2022/04/24 04:50:13;;;;;;;;;;;8.70;99.90;;;;;;5069136;28;19920;-78
2022/04/24 04:52:39;;;;;;;;;;;8.70;99.90;;;;;;5056106;28;19909;-77
2022/04/24 04:55:05;;;;;;;;;;;8.70;99.90;;;;;;5074019;28;19912;-79
2022/04/24 04:57:30;;;;;;;;;;;8.70;99.90;;;;;;5065148;28;19924;-72
2022/04/24 04:59:56;;;;;;;;;;;8.70;99.90;;;;;;5071245;28;19918;-73
2022/04/24 05:02:21;;;;;;;;;;;8.70;99.90;;;;;;5057429;28;20383;-71
2022/04/24 05:04:47;;;;;;;;;;;8.70;99.90;;;;;;5074794;28;20299;-72
2022/04/24 05:07:13;;;;;;;;;;;8.70;99.90;;;;;;5073998;28;19966;-73
2022/04/24 05:09:39;;;;;;;;;;;8.70;99.90;;;;;;5073122;28;19912;-71
2022/04/24 05:12:05;;;;;;;;;;;8.80;99.90;;;;;;5073839;28;19960;-73
2022/04/24 05:14:31;;;;;;;;;;;8.80;99.90;;;;;;5068647;28;19920;-73
2022/04/24 05:16:56;;;;;;;;;;;8.80;99.90;;;;;;5069050;28;19938;-72
2022/04/24 05:19:22;;;;;;;;;;;8.80;99.90;;;;;;5073545;28;19920;-72
2022/04/24 05:21:48;;;;;;;;;;;8.80;99.90;;;;;;5074614;28;20071;-79
2022/04/24 05:24:13;;;;;;;;;;;8.80;99.90;;;;;;5072206;28;19931;-73
2022/04/24 05:26:40;;;;;;;;;;;8.80;99.90;;;;;;5065947;28;19923;-73
2022/04/24 05:29:06;;;;;;;;;;;8.90;99.90;;;;;;5073347;28;19919;-71
2022/04/24 05:31:31;;;;;;;;;;;8.90;99.90;;;;;;5074140;28;19908;-72
2022/04/24 05:33:57;;;;;;;;;;;8.90;99.90;;;;;;5074797;28;19909;-72
2022/04/24 05:36:22;;;;;;;;;;;8.90;99.90;;;;;;5058301;28;19913;-72
2022/04/24 05:38:48;;;;;;;;;;;8.90;99.90;;;;;;5072511;28;19974;-72
2022/04/24 05:41:13;;;;;;;;;;;9.00;99.90;;;;;;5074599;28;19912;-73
2022/04/24 05:43:39;;;;;;;;;;;9.00;99.90;;;;;;5075000;28;19909;-74
2022/04/24 05:46:05;;;;;;;;;;;9.00;99.90;;;;;;5074246;28;20444;-73
2022/04/24 05:48:31;;;;;;;;;;;9.00;99.90;;;;;;5064905;28;19916;-72
2022/04/24 05:50:57;;;;;;;;;;;9.00;99.90;;;;;;5072551;28;20317;-73
2022/04/24 05:53:23;;;;;;;;;;;9.00;99.90;;;;;;5073509;28;19940;-72
2022/04/24 05:55:49;;;;;;;;;;;9.00;99.90;;;;;;5074337;28;19962;-73
2022/04/24 05:58:14;;;;;;;;;;;9.00;99.90;;;;;;5071260;28;19920;-72
2022/04/24 06:00:40;;;;;;;;;;;9.00;99.90;;;;;;5070437;28;19971;-72
2022/04/24 06:03:06;;;;;;;;;;;9.10;99.90;;;;;;5072403;28;19987;-72
2022/04/24 06:05:31;;;;;;;;;;;9.10;99.90;;;;;;5072236;28;20003;-71
2022/04/24 06:07:57;;;;;;;;;;;9.10;99.90;;;;;;5071615;28;19958;-72
2022/04/24 06:10:22;;;;;;;;;;;9.20;99.90;;;;;;5069769;28;19912;-72
2022/04/24 06:12:49;;;;;;;;;;;9.20;99.90;;;;;;5073389;28;19920;-72
2022/04/24 06:15:15;;;;;;;;;;;9.20;99.90;;;;;;5073258;28;19920;-74
2022/04/24 06:17:46;;;;;;;;;;;9.30;99.90;;;;;;5072445;28;19962;-73
2022/04/24 06:20:13;;;;;;;;;;;9.20;99.90;;;;;;5058054;28;20021;-73
2022/04/24 06:22:45;;;;;;;;;;;9.20;99.90;;;;;;5071913;28;19920;-72
2022/04/24 06:25:18;;;;;;;;;;;9.20;99.90;;;;;;5072397;28;19912;-73
2022/04/24 06:27:47;;;;;;;;;;;9.20;99.90;;;;;;5073724;28;19954;-74
2022/04/24 06:30:13;;;;;;;;;;;9.30;99.90;;;;;;5071751;28;20019;-73
2022/04/24 06:32:41;;;;;;;;;;;9.30;99.90;;;;;;5073193;28;19913;-71
2022/04/24 06:35:09;;;;;;;;;;;9.40;99.90;;;;;;5067945;28;19961;-73
2022/04/24 06:37:36;;;;;;;;;;;9.40;99.90;;;;;;5051313;28;19917;-72
2022/04/24 06:40:01;;;;;;;;;;;9.50;99.90;;;;;;5069737;28;19936;-71
2022/04/24 06:42:27;;;;;;;;;;;9.70;99.90;;;;;;5068182;28;19919;-73
2022/04/24 06:44:55;;;;;;;;;;;9.60;99.90;;;;;;5073361;28;19913;-72
2022/04/24 06:47:20;;;;;;;;;;;9.80;99.90;;;;;;5077072;28;20371;-71
2022/04/24 06:49:46;;;;;;;;;;;9.80;99.90;;;;;;5071863;28;20003;-74
2022/04/24 06:52:11;;;;;;;;;;;9.80;99.90;;;;;;5072033;28;20311;-72
2022/04/24 06:54:37;;;;;;;;;;;9.80;99.90;;;;;;5073587;28;20227;-71
2022/04/24 06:57:03;;;;;;;;;;;9.90;99.90;;;;;;5075874;28;20246;-72
2022/04/24 06:59:28;;;;;;;;;;;9.90;99.90;;;;;;5074363;28;19916;-77
2022/04/24 07:01:54;;;;;;;;;;;10.00;99.90;;;;;;5076193;28;19948;-72
2022/04/24 07:04:19;;;;;;;;;;;10.10;99.90;;;;;;5057689;28;19963;-73
2022/04/24 07:06:45;;;;;;;;;;;10.00;99.90;;;;;;5074739;28;19917;-77
2022/04/24 07:09:11;;;;;;;;;;;10.00;99.90;;;;;;5076921;28;19912;-73
2022/04/24 07:11:36;;;;;;;;;;;10.10;99.90;;;;;;5076039;28;19928;-72
2022/04/24 07:14:02;;;;;;;;;;;10.30;99.90;;;;;;5076146;28;19999;-73
2022/04/24 07:16:27;;;;;;;;;;;10.50;99.90;;;;;;5072769;28;19920;-73
2022/04/24 07:18:53;;;;;;;;;;;10.80;99.90;;;;;;5072969;28;19923;-72
2022/04/24 07:21:19;;;;;;;;;;;11.10;99.90;;;;;;5075978;28;19912;-74
2022/04/24 07:23:44;;;;;;;;;;;11.30;99.90;;;;;;5075590;28;19916;-73
2022/04/24 07:26:10;;;;;;;;;;;11.50;99.90;;;;;;5076409;28;19948;-73
2022/04/24 07:28:36;;;;;;;;;;;11.50;99.90;;;;;;5069205;28;20362;-73
2022/04/24 07:31:01;;;;;;;;;;;11.60;99.90;;;;;;5060558;28;19917;-73
2022/04/24 07:33:27;;;;;;;;;;;11.70;99.90;;;;;;5074325;28;19920;-73
2022/04/24 07:35:53;;;;;;;;;;;11.70;99.90;;;;;;5076432;28;20306;-73
2022/04/24 07:38:18;;;;;;;;;;;11.90;99.90;;;;;;5075130;28;19920;-73
2022/04/24 07:40:44;;;;;;;;;;;12.10;99.90;;;;;;5076356;28;19958;-74
2022/04/24 07:43:10;;;;;;;;;;;12.10;99.90;;;;;;5076137;28;19966;-73
2022/04/24 07:45:43;;;;;;;;;;;12.00;99.90;;;;;;5056268;28;19959;-73
2022/04/24 07:48:10;;;;;;;;;;;12.20;99.90;;;;;;5075304;28;20269;-73
2022/04/24 07:50:46;;;;;;;;;;;12.20;99.90;;;;;;5073532;28;20002;-73
2022/04/24 07:53:12;;;;;;;;;;;12.40;99.90;;;;;;5074840;28;19913;-73
2022/04/24 07:55:42;;;;;;;;;;;12.30;99.90;;;;;;5075092;28;19936;-74
2022/04/24 07:58:08;;;;;;;;;;;12.40;99.90;;;;;;5074414;28;19916;-73
2022/04/24 08:00:34;;;;;;;;;;;12.40;99.90;;;;;;5076883;28;19958;-74
2022/04/24 08:03:03;;;;;;;;;;;12.50;99.90;;;;;;5076845;28;19909;-73
2022/04/24 08:05:32;;;;;;;;;;;12.60;99.90;;;;;;5076806;28;19908;-75
2022/04/24 08:07:59;;;;;;;;;;;12.70;99.90;;;;;;5076831;28;19909;-74
2022/04/24 08:10:26;;;;;;;;;;;12.80;99.90;;;;;;5076082;28;20366;-73
2022/04/24 08:12:52;;;;;;;;;;;12.70;99.90;;;;;;5075150;28;19927;-73
2022/04/24 08:15:17;;;;;;;;;;;12.80;99.90;;;;;;5056942;28;19908;-73
2022/04/24 08:17:43;;;;;;;;;;;12.80;99.90;;;;;;5074444;28;19916;-74
2022/04/24 08:20:10;;;;;;;;;;;13.00;99.90;;;;;;5073256;28;19924;-73
2022/04/24 08:22:39;;;;;;;;;;;13.10;99.90;;;;;;5076578;28;19916;-74
2022/04/24 08:25:05;;;;;;;;;;;13.20;99.90;;;;;;5076461;28;19908;-73
2022/04/24 08:27:30;;;;;;;;;;;13.30;99.90;;;;;;5057809;28;19969;-73
2022/04/24 08:29:56;;;;;;;;;;;13.50;99.90;;;;;;5065631;28;19999;-77
2022/04/24 08:32:24;;;;;;;;;;;13.40;99.90;;;;;;5056276;28;19909;-73
2022/04/24 08:34:50;;;;;;;;;;;13.40;99.90;;;;;;5073324;28;19916;-72
2022/04/24 08:37:15;;;;;;;;;;;13.30;99.90;;;;;;5074677;28;20434;-72
2022/04/24 08:39:41;;;;;;;;;;;13.20;99.90;;;;;;5073111;28;19927;-73
2022/04/24 08:42:09;;;;;;;;;;;13.30;99.90;;;;;;5072867;28;19912;-73
2022/04/24 08:44:35;;;;;;;;;;;13.40;99.90;;;;;;5058063;28;19966;-73
2022/04/24 08:47:01;;;;;;;;;;;13.50;99.90;;;;;;5075179;28;19912;-73
2022/04/24 08:49:27;;;;;;;;;;;13.70;99.90;;;;;;5071687;28;19912;-74
2022/04/24 08:51:53;;;;;;;;;;;13.60;99.90;;;;;;5068242;28;19913;-74
2022/04/24 08:54:19;;;;;;;;;;;13.70;99.90;;;;;;5075394;28;19920;-74
2022/04/24 08:56:44;;;;;;;;;;;13.70;99.90;;;;;;5074923;28;19912;-74
2022/04/24 08:59:10;;;;;;;;;;;13.90;99.90;;;;;;5075298;28;19916;-74
2022/04/24 09:01:45;;;;;;;;;;;13.90;99.90;;;;;;5073916;28;19924;-74
2022/04/24 09:04:11;;;;;;;;;;;14.00;99.90;;;;;;5074729;28;19981;-74
2022/04/24 09:06:36;;;;;;;;;;;14.00;99.90;;;;;;5072054;28;19928;-73
2022/04/24 09:09:06;;;;;;;;;;;14.40;99.90;;;;;;5066746;28;19916;-73
2022/04/24 09:11:32;;;;;;;;;;;14.40;99.90;;;;;;5070595;28;19971;-74
2022/04/24 09:14:18;;;;;;;;;;;14.40;99.90;;;;;;5067938;28;19962;-74
2022/04/24 09:16:47;;;;;;;;;;;14.30;99.90;;;;;;5071632;28;19959;-74
2022/04/24 09:19:15;;;;;;;;;;;14.20;99.90;;;;;;5055574;28;19924;-73
2022/04/24 09:21:41;;;;;;;;;;;14.20;99.90;;;;;;5066787;28;19962;-74
2022/04/24 09:24:06;;;;;;;;;;;14.40;99.90;;;;;;5074553;28;19913;-73
2022/04/24 09:26:33;;;;;;;;;;;14.70;99.90;;;;;;5075697;28;19916;-73
2022/04/24 09:28:59;;;;;;;;;;;14.50;99.90;;;;;;5073720;28;19917;-74
2022/04/24 09:31:29;;;;;;;;;;;14.60;99.90;;;;;;5064759;28;19965;-74
2022/04/24 09:33:54;;;;;;;;;;;14.70;99.90;;;;;;5075538;28;19908;-74
2022/04/24 09:36:24;;;;;;;;;;;15.00;99.90;;;;;;5075484;28;19916;-73
2022/04/24 09:38:49;;;;;;;;;;;15.30;99.90;;;;;;5073854;28;19916;-73
2022/04/24 09:41:19;;;;;;;;;;;15.20;99.90;;;;;;5073065;28;19917;-78
2022/04/24 09:43:45;;;;;;;;;;;15.20;99.90;;;;;;5074231;28;19909;-73
2022/04/24 09:46:10;;;;;;;;;;;15.40;99.90;;;;;;5072579;28;19917;-74
2022/04/24 09:48:36;;;;;;;;;;;15.40;99.90;;;;;;5075269;28;19923;-73
2022/04/24 09:51:02;;;;;;;;;;;15.30;99.90;;;;;;5073782;28;19912;-72
2022/04/24 09:53:28;;;;;;;;;;;15.40;99.90;;;;;;5075168;28;19912;-74
2022/04/24 09:55:54;;;;;;;;;;;15.20;99.90;;;;;;5072188;28;19927;-74
2022/04/24 09:58:23;;;;;;;;;;;15.20;99.90;;;;;;5073709;28;19917;-73
2022/04/24 10:00:50;;;;;;;;;;;15.10;99.90;;;;;;5066660;28;19925;-74
2022/04/24 10:03:17;;;;;;;;;;;15.00;99.90;;;;;;5074017;28;19917;-68
2022/04/24 10:05:45;;;;;;;;;;;15.10;99.90;;;;;;5072288;28;21629;-73
2022/04/24 10:08:11;;;;;;;;;;;15.20;99.90;;;;;;5069288;28;19920;-78
2022/04/24 10:10:36;;;;;;;;;;;15.00;99.90;;;;;;5069462;28;19924;-72
2022/04/24 10:13:06;;;;;;;;;;;14.90;99.90;;;;;;5072697;28;20058;-73
2022/04/24 10:15:33;;;;;;;;;;;15.10;99.90;;;;;;5074021;28;19991;-73
2022/04/24 10:17:59;;;;;;;;;;;15.10;99.90;;;;;;5066023;28;20019;-73
2022/04/24 10:20:24;;;;;;;;;;;15.20;99.90;;;;;;5061222;28;19995;-72
2022/04/24 10:22:52;;;;;;;;;;;15.40;99.90;;;;;;5076398;28;19916;-73
2022/04/24 10:25:28;;;;;;;;;;;15.30;99.90;;;;;;5077818;28;20424;-78
2022/04/24 10:27:53;;;;;;;;;;;15.40;99.90;;;;;;5072777;28;20330;-72
2022/04/24 10:30:22;;;;;;;;;;;15.60;99.90;;;;;;5073156;28;19916;-73
2022/04/24 10:32:48;;;;;;;;;;;15.60;99.90;;;;;;5074634;28;19931;-72
2022/04/24 10:35:17;;;;;;;;;;;15.70;99.90;;;;;;5075082;28;19969;-73
2022/04/24 10:37:43;;;;;;;;;;;15.60;99.90;;;;;;5070178;28;19917;-73
2022/04/24 10:40:13;;;;;;;;;;;15.40;99.90;;;;;;5070134;28;19942;-71
2022/04/24 10:42:39;;;;;;;;;;;15.30;99.90;;;;;;5071260;28;19917;-72
2022/04/24 10:45:09;;;;;;;;;;;15.10;99.90;;;;;;5073224;28;19924;-73
2022/04/24 10:47:50;;;;;;;;;;;15.20;99.90;;;;;;5074146;28;19965;-73
2022/04/24 10:50:19;;;;;;;;;;;15.50;99.90;;;;;;5074934;28;19923;-75
2022/04/24 10:52:46;;;;;;;;;;;15.60;99.90;;;;;;5074331;28;19966;-73
2022/04/24 10:55:12;;;;;;;;;;;15.30;99.90;;;;;;5074582;28;19916;-73
2022/04/24 10:57:42;;;;;;;;;;;15.30;99.90;;;;;;5074074;28;19920;-73
2022/04/24 11:00:16;;;;;;;;;;;15.30;99.90;;;;;;5064252;28;19917;-71
2022/04/24 11:02:42;;;;;;;;;;;15.60;99.90;;;;;;5063872;28;19916;-72
2022/04/24 11:05:11;;;;;;;;;;;15.60;99.90;;;;;;5074841;28;19912;-72
2022/04/24 11:07:38;;;;;;;;;;;15.40;99.90;;;;;;5074577;28;19917;-75
2022/04/24 11:10:05;;;;;;;;;;;15.60;99.90;;;;;;5074433;28;20338;-72
2022/04/24 11:12:33;;;;;;;;;;;15.60;99.30;;;;;;5072864;28;20314;-72
2022/04/24 11:15:01;;;;;;;;;;;15.60;99.40;;;;;;5074063;28;19917;-72
2022/04/24 11:17:27;;;;;;;;;;;15.50;99.30;;;;;;5073077;28;20032;-72
2022/04/24 11:19:58;;;;;;;;;;;15.50;99.50;;;;;;5074313;28;19916;-76
2022/04/24 11:22:24;;;;;;;;;;;15.80;98.20;;;;;;5073283;28;19944;-75
2022/04/24 11:24:49;;;;;;;;;;;15.70;98.50;;;;;;5070651;28;20303;-74
2022/04/24 11:27:15;;;;;;;;;;;16.10;99.20;;;;;;5074496;28;19934;-72
2022/04/24 11:29:44;;;;;;;;;;;16.10;97.10;;;;;;5071389;28;20580;-73
2022/04/24 11:32:11;;;;;;;;;;;15.90;97.70;;;;;;5071536;28;19924;-73
2022/04/24 11:34:37;;;;;;;;;;;16.00;97.20;;;;;;5070916;28;19917;-73
2022/04/24 11:37:04;;;;;;;;;;;16.00;97.40;;;;;;5074118;28;20307;-73
2022/04/24 11:39:30;;;;;;;;;;;16.10;96.20;;;;;;5072646;28;19920;-72
2022/04/24 11:41:58;;;;;;;;;;;16.10;97.90;;;;;;5073730;28;20393;-79
2022/04/24 11:52:42;;;;;;;;;;;15.70;99.00;;;;;;5071622;28;19970;-78
2022/04/24 11:55:08;;;;;;;;;;;15.80;99.00;;;;;;5052456;28;19952;-77
2022/04/24 11:57:34;;;;;;;;;;;15.80;97.50;;;;;;5053852;28;19913;-74
2022/04/24 11:59:59;;;;;;;;;;;15.60;96.70;;;;;;5052733;28;19912;-73
2022/04/24 12:02:26;;;;;;;;;;;15.60;99.00;;;;;;5070209;28;19967;-71
2022/04/24 12:04:52;;;;;;;;;;;15.80;98.20;;;;;;5072619;28;20015;-73
2022/04/24 12:07:18;;;;;;;;;;;15.70;96.90;;;;;;5073670;28;19912;-75
2022/04/24 12:09:44;;;;;;;;;;;15.70;97.00;;;;;;5073576;28;20456;-72
2022/04/24 12:12:12;;;;;;;;;;;15.80;96.80;;;;;;5071525;28;20075;-74
2022/04/24 12:14:39;;;;;;;;;;;15.90;97.20;;;;;;5062818;28;19913;-73
2022/04/24 12:17:05;;;;;;;;;;;15.90;97.40;;;;;;5053275;28;19913;-81
2022/04/24 12:19:31;;;;;;;;;;;15.70;97.10;;;;;;5059006;28;19921;-74
2022/04/24 12:22:03;;;;;;;;;;;15.70;97.10;;;;;;5070825;28;19919;-74
2022/04/24 12:24:37;;;;;;;;;;;15.70;97.80;;;;;;5069503;28;20007;-72
2022/04/24 12:27:03;;;;;;;;;;;15.80;97.20;;;;;;5073105;28;19962;-73
2022/04/24 12:29:38;;;;;;;;;;;15.80;95.80;;;;;;5072369;28;19920;-73
2022/04/24 12:32:07;;;;;;;;;;;15.70;96.20;;;;;;5071824;28;19917;-78
2022/04/24 12:34:36;;;;;;;;;;;15.80;97.70;;;;;;5070849;28;19923;-72
2022/04/24 12:37:01;;;;;;;;;;;15.80;98.10;;;;;;5070112;28;20333;-72
2022/04/24 12:39:28;;;;;;;;;;;15.80;96.60;;;;;;5060175;28;19920;-78
2022/04/24 12:41:54;;;;;;;;;;;15.90;95.00;;;;;;5069785;28;19919;-74
2022/04/24 12:44:20;;;;;;;;;;;15.70;95.70;;;;;;5071525;28;19917;-72
2022/04/24 12:46:49;;;;;;;;;;;16.00;96.60;;;;;;5063866;28;19931;-72
2022/04/24 12:49:25;;;;;;;;;;;16.10;96.70;;;;;;5065735;28;19932;-73
2022/04/24 12:51:51;;;;;;;;;;;16.20;97.10;;;;;;5070061;28;20010;-73
2022/04/24 12:54:17;;;;;;;;;;;16.20;96.20;;;;;;5070476;28;19920;-72
2022/04/24 12:56:43;;;;;;;;;;;15.80;97.00;;;;;;5064581;28;20643;-73
2022/04/24 12:59:08;;;;;;;;;;;15.80;97.80;;;;;;5071824;28;20372;-78
2022/04/24 13:01:34;;;;;;;;;;;16.10;98.30;;;;;;5071017;28;19913;-72
2022/04/24 13:03:59;;;;;;;;;;;16.00;96.00;;;;;;5071233;28;19916;-75
2022/04/24 13:06:27;;;;;;;;;;;15.80;95.90;;;;;;5068431;28;19913;-72
2022/04/24 13:08:55;;;;;;;;;;;15.60;97.70;;;;;;5073173;28;19909;-72
2022/04/24 13:11:23;;;;;;;;;;;15.80;97.50;;;;;;5070961;28;19967;-72
2022/04/24 13:13:49;;;;;;;;;;;15.80;96.80;;;;;;5074825;28;19985;-71
2022/04/24 13:18:59;;;;;;;;;;;15.90;97.20;;;;;;5073692;28;20008;-77
2022/04/24 13:21:24;;;;;;;;;;;15.80;96.00;;;;;;5071469;28;20550;-74
2022/04/24 13:23:50;;;;;;;;;;;15.90;96.90;;;;;;5070975;28;20028;-72
2022/04/24 13:26:16;;;;;;;;;;;15.80;97.00;;;;;;5072953;28;20247;-78
2022/04/24 13:28:41;;;;;;;;;;;15.80;96.90;;;;;;5073478;28;19916;-78
2022/04/24 13:31:07;;;;;;;;;;;15.70;98.40;;;;;;5073928;28;20003;-72
2022/04/24 13:33:34;;;;;;;;;;;15.70;98.00;;;;;;5074910;28;19951;-72
2022/04/24 13:36:00;;;;;;;;;;;15.80;97.50;;;;;;5063502;28;20429;-77
2022/04/24 13:38:26;;;;;;;;;;;15.60;96.50;;;;;;5073702;28;19935;-73
2022/04/24 13:40:58;;;;;;;;;;;15.90;97.60;;;;;;5080746;28;20315;-73
2022/04/24 13:43:23;;;;;;;;;;;15.90;96.20;;;;;;5065748;28;20449;-72
2022/04/24 13:45:50;;;;;;;;;;;15.80;96.90;;;;;;5064370;28;19928;-72
2022/04/24 13:48:16;;;;;;;;;;;16.00;97.60;;;;;;5073022;28;20572;-73
2022/04/24 13:50:41;;;;;;;;;;;15.90;97.00;;;;;;5072226;28;20003;-72
2022/04/24 13:53:07;;;;;;;;;;;15.80;96.30;;;;;;5074645;28;19919;-79
2022/04/24 13:55:36;;;;;;;;;;;16.00;97.50;;;;;;5076533;28;19924;-72
2022/04/24 13:58:06;;;;;;;;;;;15.90;97.90;;;;;;5077069;28;19917;-73
2022/04/24 14:00:32;;;;;;;;;;;15.80;98.30;;;;;;5078339;28;19922;-72
2022/04/24 14:02:58;;;;;;;;;;;15.60;99.90;;;;;;5078934;28;19962;-73
2022/04/24 14:05:25;;;;;;;;;;;15.30;99.90;;;;;;5078917;28;19913;-72
2022/04/24 14:07:51;;;;;;;;;;;15.20;99.90;;;;;;5077144;28;20342;-73
2022/04/24 14:10:17;;;;;;;;;;;15.40;99.90;;;;;;5077221;28;19908;-72
2022/04/24 14:12:43;;;;;;;;;;;15.50;99.90;;;;;;5078430;28;19916;-73
2022/04/24 14:15:09;;;;;;;;;;;15.50;99.90;;;;;;5067851;28;20365;-73
2022/04/24 14:17:35;;;;;;;;;;;15.40;99.90;;;;;;5076670;28;19916;-73
2022/04/24 14:20:01;;;;;;;;;;;15.40;99.90;;;;;;5077372;28;20402;-75
2022/04/24 14:22:26;;;;;;;;;;;15.20;99.90;;;;;;5077700;28;19987;-73
2022/04/24 14:24:53;;;;;;;;;;;15.00;99.90;;;;;;5077448;28;19923;-73
2022/04/24 14:27:19;;;;;;;;;;;15.10;99.90;;;;;;5074575;28;19920;-71